McLeod, Montana
Current Conditions -  °F | °C
As of 8:53 PM on Saturday 20 Dec 2014 (Local Time) from KLVM Reporting Station
Clear Clear  
Wind Chill: 33°   Ceiling: Unl
Heat Index: 43°   Visibility: 10mi
Dew Point: 23°   Wind: 28mph
Humidity: 45%   Direction: 240°WSW
Pressure: 29.67"   Gusts: 46mph
Location:  45.66°N, 110.12°W
Report Text: KLVM 210353Z AUTO 24024G40KT 10SM CLR 06/M05 A2967 RMK AO2 PK WND 22042/0342 SLP049 T00611050
Loading
Personal Weather Stations






























Interactive Weather Map New forecast layout! Learn more

10-Day Weather Forecast

Advertisements
Track Severe Weather on mobile